This is the latest recevied weather packets stored in our database for station/object LRBO. If no packets are shown the sender has not sent any weather packets the latest 10 day(s).
| Time | Temp. | Humidity | Pressure | Rain* | Wind** | Luminosity | Snow |
|---|---|---|---|---|---|---|---|
| 1777780129 | 2.78° C | 75% | 1022 hPa | - | - | - | - |
| 1777779233 | 2.78° C | 75% | 1022 hPa | - | - | - | - |
| 1777778328 | 2.78° C | 75% | 1022 hPa | - | - | - | - |
| 1777777433 | 2.78° C | 75% | 1022 hPa | - | - | - | - |
| 1777776545 | 2.22° C | 81% | 1023 hPa | - | - | - | - |
| 1777754930 | 6.11° C | 71% | 1023 hPa | - | - | - | - |
| 1777751333 | 6.11° C | 71% | 1023 hPa | - | - | - | - |
| 1777750434 | 6.11° C | 71% | 1023 hPa | - | - | - | - |
| 1777749533 | 6.11° C | 71% | 1023 hPa | - | - | - | - |
| 1777748633 | 6.11° C | 71% | 1023 hPa | - | - | - | - |
| 1777745934 | 6.11° C | 71% | 1022 hPa | - | - | - | - |
| 1777744133 | 8.89° C | 54% | 1022 hPa | - | - | - | - |
| 1777742331 | 8.89° C | 54% | 1022 hPa | - | - | - | - |
| 1777740531 | 11.11° C | 44% | 1022 hPa | - | - | - | - |
| 1777739634 | 11.11° C | 44% | 1022 hPa | - | - | - | - |
| 1777737834 | 11.11° C | 44% | 1022 hPa | - | - | - | - |
| 1777736939 | 12.78° C | 36% | 1022 hPa | - | - | - | - |
| 1777736034 | 12.78° C | 36% | 1022 hPa | - | - | - | - |
| 1777735133 | 12.78° C | 36% | 1022 hPa | - | - | - | - |
| 1777734233 | 12.78° C | 36% | 1022 hPa | - | - | - | - |
| 1777733333 | 12.78° C | 38% | 1022 hPa | - | - | - | - |
| 1777732433 | 12.78° C | 38% | 1022 hPa | - | - | - | - |
| 1777731531 | 12.78° C | 38% | 1022 hPa | - | - | - | - |
| 1777730634 | 12.78° C | 38% | 1022 hPa | - | - | - | - |
| 1777729730 | 12.22° C | 44% | 1022 hPa | - | - | - | - |
* Rain since midnight (hover to see other rain measurements)
** Current wind speed in m/s (hover to see current wind gust speed)